Menifee, AR

9:11 PM CDT on March 28, 2015 (GMT -0500)
Russellville Regional | | Change Station
CLOSE
Current Station
Airport
Location: Russellville,
Elevation: 404 ft
Nearby Weather Stations

Elev 404 ft 35.26 °N, 93.09 °W | Updated 18 minutes ago

Clear
Clear
44 °F
Feels Like 40 °F
N
8
Wind Variable Wind from East
Gusts 16 mph

Today
High -- | Low -- °F
--% Chance of Precip.
Yesterday
High -- | Low -- °F
Precip. -- in
7:02 AM 7:28 PM
Waxing Gibbous, 67% visible
Pressure 30.23 in
Visibility 10.0 miles
Clouds Clear
Windchill 40 °F
Dew Point 31 °F
Humidity 60%
Rainfall 0.05 in
Snow Depth Not available.
UV 0 out of 12
Pollen 8.50 out of 12
Air Quality Not available.
Flu Activity Not available.
METAR KRUE 290153Z AUTO 09007G14KT 10SM CLR 07/M01 A3024 RMK AO2 SLP237 T00671006

More Conditions Fewer Conditions

Pressure 30.23 in
Visibility 10.0 miles
Clouds Clear
Windchill 40 °F
Dew Point 31 °F
Humidity 60%
Rainfall 0.05 in
Snow Depth Not available.
UV 0 out of 12
Pollen 8.50 out of 12
Air Quality Not available.
Flu Activity Not available.
METAR KRUE 290153Z AUTO 09007G14KT 10SM CLR 07/M01 A3024 RMK AO2 SLP237 T00671006

More Conditions Fewer Conditions

10-Day Weather Forecast

Almanac

Astronomy

Mar. 28, 2015 Rise Set
Actual Time
Civil Twilight
Nautical Twilight
Astronomical Twilight
Moon
Length of Visible Light
Length of Day
Tomorrow will be .
, % of the Moon is Illuminated

Today's Extremes

State Highs State Lows

Community

WunderPhotos

Upload Photos

1,809,155 photos uploaded!

WunderBlogs® & News

Nearby

Air Quality

  Air Quality AQ Index Pollutant
Not available.

Snow Depth

Station Depth Elevation

Earthquake Activity

City Distance Mag. Time & Date
Minimum magnitude displayed is 2.5.

Coastal Water Temperatures

Place Temperature

Stations

Nearby Weather Stations

Station Location Temp. Windchill Dew Point Humidity Wind Precip. Elev Updated Type